createdAt,value
2018-08-16T00:02:17.348Z,59.90
2018-08-16T00:07:20.588Z,60.19
2018-08-16T00:12:23.682Z,59.66
2018-08-16T00:17:27.102Z,60.01
2018-08-16T00:22:30.319Z,59.59
2018-08-16T00:27:33.449Z,59.60
2018-08-16T00:32:37.056Z,58.80
2018-08-16T00:37:42.163Z,58.94
2018-08-16T00:42:45.209Z,59.47
2018-08-16T00:47:48.384Z,59.49
2018-08-16T00:52:51.445Z,58.69
2018-08-16T00:57:55.661Z,58.73
2018-08-16T01:02:58.734Z,58.33
2018-08-16T01:08:01.853Z,58.83
2018-08-16T01:13:05.117Z,58.92
2018-08-16T01:18:08.351Z,58.94
2018-08-16T01:23:11.455Z,58.99
2018-08-16T01:28:14.539Z,59.08
2018-08-16T01:33:17.765Z,59.15
2018-08-16T01:38:21.107Z,59.02
2018-08-16T01:43:24.173Z,58.88
2018-08-16T01:48:27.321Z,58.62
2018-08-16T01:53:30.447Z,59.19
2018-08-16T01:58:33.657Z,59.27
2018-08-16T02:03:36.836Z,58.76
2018-08-16T02:08:40.076Z,58.83
2018-08-16T02:13:43.125Z,59.11
2018-08-16T02:18:46.303Z,59.46
2018-08-16T02:23:49.431Z,59.63
2018-08-16T02:28:52.606Z,59.62
2018-08-16T02:33:56.026Z,59.60
2018-08-16T02:38:59.117Z,59.57
2018-08-16T02:44:02.158Z,59.23
2018-08-16T02:49:05.342Z,59.71
2018-08-16T02:54:08.387Z,59.07
2018-08-16T02:59:11.425Z,59.44
2018-08-16T03:04:14.461Z,59.09
2018-08-16T03:09:17.853Z,59.52
2018-08-16T03:14:20.953Z,59.13
2018-08-16T03:19:24.010Z,59.52
2018-08-16T03:24:27.040Z,59.18
2018-08-16T03:29:30.066Z,58.84
2018-08-16T03:34:33.278Z,59.04
2018-08-16T03:39:36.315Z,59.10
2018-08-16T03:44:39.313Z,60.10
2018-08-16T03:49:42.330Z,59.96
2018-08-16T03:54:45.381Z,59.59
2018-08-16T03:59:48.383Z,60.34
2018-08-16T04:04:51.429Z,60.11
2018-08-16T04:09:54.504Z,61.07
2018-08-16T04:14:57.589Z,60.92
2018-08-16T04:20:00.697Z,61.44
2018-08-16T04:25:04.414Z,62.23
2018-08-16T04:30:07.477Z,62.65
2018-08-16T04:35:10.502Z,62.95
2018-08-16T04:40:13.557Z,62.58
2018-08-16T04:45:16.617Z,62.89
2018-08-16T04:50:19.658Z,62.62
2018-08-16T04:55:22.990Z,62.68
2018-08-16T05:00:26.055Z,62.86
2018-08-16T05:05:29.134Z,62.17
2018-08-16T05:10:32.249Z,62.20
2018-08-16T05:15:35.328Z,62.03
2018-08-16T05:20:38.417Z,61.99
2018-08-16T05:25:42.679Z,61.13
2018-08-16T05:30:45.911Z,60.76
2018-08-16T05:35:49.081Z,60.78
2018-08-16T05:40:52.219Z,60.10
2018-08-16T05:45:55.302Z,59.75
2018-08-16T05:50:58.403Z,59.26
2018-08-16T05:56:01.561Z,58.70
2018-08-16T06:01:05.008Z,58.44
2018-08-16T06:06:09.322Z,57.89
2018-08-16T06:11:12.765Z,57.29
2018-08-16T06:16:16.211Z,56.64
2018-08-16T06:21:19.370Z,56.54
2018-08-16T06:26:22.775Z,56.51
2018-08-16T06:31:26.273Z,56.36
2018-08-16T06:36:29.764Z,56.44
2018-08-16T06:41:33.359Z,56.20
2018-08-16T06:46:37.153Z,56.41
2018-08-16T06:51:40.566Z,55.82
2018-08-16T06:56:44.007Z,55.73
2018-08-16T07:01:47.398Z,55.24
2018-08-16T07:06:50.666Z,55.94
2018-08-16T07:11:54.034Z,55.87
2018-08-16T07:16:57.222Z,55.58
2018-08-16T07:22:00.342Z,55.39
2018-08-16T07:27:03.517Z,55.00
2018-08-16T07:32:06.650Z,53.87
2018-08-16T07:37:09.746Z,53.38
2018-08-16T07:42:12.881Z,52.25
2018-08-16T07:47:16.055Z,51.82
2018-08-16T07:52:19.209Z,51.19
2018-08-16T07:57:22.422Z,50.92
2018-08-16T08:02:25.590Z,49.80
2018-08-16T08:07:28.813Z,49.35
2018-08-16T08:12:31.954Z,49.47
2018-08-16T08:17:35.141Z,49.69
2018-08-16T08:22:38.235Z,48.08
2018-08-16T08:27:41.494Z,47.51
2018-08-16T08:32:44.633Z,47.11
2018-08-16T08:38:15.285Z,47.45
2018-08-16T08:43:35.626Z,47.08
2018-08-16T08:48:38.655Z,46.35
2018-08-16T08:54:57.026Z,45.60
2018-08-16T09:00:00.161Z,45.41
2018-08-16T09:05:04.150Z,45.52
2018-08-16T09:11:21.582Z,44.45
2018-08-16T09:16:28.047Z,44.12
2018-08-16T09:21:32.912Z,42.93
2018-08-16T09:26:40.048Z,42.99
2018-08-16T09:32:06.288Z,42.78
2018-08-16T09:37:11.203Z,42.19
2018-08-16T09:42:14.305Z,42.42
2018-08-16T09:47:34.560Z,42.05
2018-08-16T09:52:37.610Z,42.53
2018-08-16T09:57:40.630Z,41.29
2018-08-16T10:02:43.695Z,40.92
2018-08-16T10:07:46.771Z,41.14
2018-08-16T10:12:49.802Z,40.98
2018-08-16T10:17:52.902Z,40.04
2018-08-16T10:22:55.942Z,40.20
2018-08-16T10:27:58.989Z,39.70
2018-08-16T10:33:02.018Z,39.55
2018-08-16T10:38:05.382Z,39.54
2018-08-16T10:43:08.484Z,39.73
2018-08-16T10:48:11.472Z,39.13
2018-08-16T10:53:14.730Z,38.57
2018-08-16T10:58:17.870Z,38.87
2018-08-16T11:03:21.847Z,38.45
2018-08-16T11:08:25.298Z,38.58
2018-08-16T11:13:28.385Z,38.70
2018-08-16T11:18:31.570Z,38.09
2018-08-16T11:23:34.620Z,38.20
2018-08-16T11:28:39.294Z,37.99
2018-08-16T11:33:42.432Z,37.97
2018-08-16T11:38:45.477Z,37.27
2018-08-16T11:43:48.561Z,37.64
2018-08-16T11:48:51.639Z,36.88
2018-08-16T11:53:54.773Z,36.56
2018-08-16T11:58:57.910Z,36.62
2018-08-16T12:04:01.386Z,36.48
2018-08-16T12:09:08.430Z,36.33
2018-08-16T12:14:11.766Z,35.75
2018-08-16T12:19:14.882Z,36.13
2018-08-16T12:24:17.950Z,36.24
2018-08-16T12:29:21.685Z,35.42
2018-08-16T12:34:24.725Z,35.01
2018-08-16T12:39:27.783Z,35.58
2018-08-16T12:44:30.835Z,36.01
2018-08-16T12:49:34.012Z,34.86
2018-08-16T12:54:37.094Z,34.85
2018-08-16T12:59:40.161Z,34.46
2018-08-16T13:04:43.296Z,34.74
2018-08-16T13:09:46.431Z,35.18
2018-08-16T13:14:49.544Z,34.35
2018-08-16T13:19:52.590Z,34.56
2018-08-16T13:24:55.630Z,33.98
2018-08-16T13:29:58.809Z,34.05
2018-08-16T13:35:01.922Z,33.14
2018-08-16T13:40:06.757Z,32.89
2018-08-16T13:45:09.805Z,33.35
2018-08-16T13:50:12.863Z,33.34
2018-08-16T13:55:17.362Z,32.86
2018-08-16T14:00:20.542Z,32.91
2018-08-16T14:05:23.606Z,33.15
2018-08-16T14:10:27.041Z,32.95
2018-08-16T14:15:30.336Z,33.09
2018-08-16T14:20:33.405Z,31.61
2018-08-16T14:25:36.490Z,32.19
2018-08-16T14:30:39.705Z,33.22
2018-08-16T14:35:42.699Z,33.05
2018-08-16T14:40:45.703Z,31.72
2018-08-16T14:45:48.751Z,32.68
2018-08-16T14:50:51.811Z,31.75
2018-08-16T14:55:54.842Z,32.17
2018-08-16T15:00:57.952Z,31.92
2018-08-16T15:06:00.991Z,32.02
2018-08-16T15:11:04.090Z,32.13
2018-08-16T15:16:07.308Z,32.03
2018-08-16T15:21:10.518Z,31.43
2018-08-16T15:26:13.558Z,31.03
2018-08-16T15:31:16.732Z,30.83
2018-08-16T15:36:19.830Z,31.67
2018-08-16T15:41:24.067Z,31.30
2018-08-16T15:46:28.665Z,31.67
2018-08-16T15:51:31.911Z,32.22
2018-08-16T15:56:34.980Z,32.53
2018-08-16T16:01:38.224Z,32.32
2018-08-16T16:06:41.407Z,32.21
2018-08-16T16:11:46.276Z,33.32
2018-08-16T16:16:49.479Z,32.81
2018-08-16T16:21:52.558Z,32.29
2018-08-16T16:26:55.620Z,32.97
2018-08-16T16:32:00.654Z,32.15
2018-08-16T16:37:03.859Z,33.14
2018-08-16T16:42:07.427Z,33.76
2018-08-16T16:47:10.946Z,33.89
2018-08-16T16:52:14.094Z,34.15
2018-08-16T16:57:17.244Z,34.25
2018-08-16T17:02:20.361Z,34.70
2018-08-16T17:07:23.692Z,35.19
2018-08-16T17:12:26.772Z,35.17
2018-08-16T17:17:30.281Z,35.68
2018-08-16T17:22:33.572Z,36.00
2018-08-16T17:27:36.595Z,36.53
2018-08-16T17:32:39.895Z,36.80
2018-08-16T17:37:42.992Z,37.71
2018-08-16T17:42:46.157Z,37.51
2018-08-16T17:47:49.349Z,38.15
2018-08-16T17:52:52.642Z,38.90
2018-08-16T17:57:55.818Z,39.12
2018-08-16T18:02:59.111Z,39.42
2018-08-16T18:08:02.513Z,40.26
2018-08-16T18:13:06.096Z,40.06
2018-08-16T18:18:09.623Z,40.45
2018-08-16T18:23:12.822Z,40.69
2018-08-16T18:28:15.999Z,41.16
2018-08-16T18:33:19.304Z,42.03
2018-08-16T18:38:22.827Z,43.44
2018-08-16T18:43:26.234Z,43.72
2018-08-16T18:48:29.503Z,44.66
2018-08-16T18:53:32.921Z,45.18
2018-08-16T18:58:35.986Z,45.64
2018-08-16T19:03:39.062Z,45.53
2018-08-16T19:08:42.177Z,45.94
2018-08-16T19:13:45.402Z,46.54
2018-08-16T19:18:48.514Z,46.46
2018-08-16T19:23:51.651Z,47.16
2018-08-16T19:28:54.873Z,47.55
2018-08-16T19:33:58.141Z,48.20
2018-08-16T19:39:01.904Z,48.67
2018-08-16T19:44:05.930Z,49.66
2018-08-16T19:49:11.092Z,50.61
2018-08-16T19:54:14.699Z,51.07
2018-08-16T19:59:17.823Z,51.56
2018-08-16T20:04:21.120Z,52.38
2018-08-16T20:09:24.604Z,52.56
2018-08-16T20:14:27.710Z,52.63
2018-08-16T20:19:32.191Z,52.88
2018-08-16T20:24:35.540Z,53.40
2018-08-16T20:29:38.913Z,53.09
2018-08-16T20:34:42.941Z,53.28
2018-08-16T20:39:47.553Z,53.42
2018-08-16T20:44:50.906Z,54.22
2018-08-16T20:49:53.908Z,54.68
2018-08-16T20:54:56.948Z,54.65
2018-08-16T21:00:00.017Z,54.66
2018-08-16T21:05:03.149Z,55.75
2018-08-16T21:10:07.551Z,55.34
2018-08-16T21:15:11.410Z,55.43
2018-08-16T21:20:14.514Z,56.54
2018-08-16T21:25:17.689Z,56.46
2018-08-16T21:30:20.757Z,56.94
2018-08-16T21:35:23.809Z,57.85
2018-08-16T21:40:26.913Z,57.91
2018-08-16T21:45:30.043Z,58.12
2018-08-16T21:50:33.074Z,58.71
2018-08-16T21:55:36.098Z,58.50
2018-08-16T22:00:53.219Z,58.72
2018-08-16T22:05:59.193Z,59.33
2018-08-16T22:11:02.229Z,59.33
2018-08-16T22:16:05.569Z,59.31
2018-08-16T22:21:08.993Z,59.85
2018-08-16T22:26:12.144Z,59.86
2018-08-16T22:31:15.133Z,59.97
2018-08-16T22:36:18.202Z,60.06
2018-08-16T22:41:22.235Z,60.29
2018-08-16T22:46:25.329Z,60.67
2018-08-16T22:51:28.333Z,61.08
2018-08-16T22:56:31.391Z,61.69
2018-08-16T23:01:34.438Z,61.86
2018-08-16T23:06:37.530Z,61.76
2018-08-16T23:11:40.558Z,61.91
2018-08-16T23:16:43.572Z,62.31
2018-08-16T23:21:46.554Z,62.18
2018-08-16T23:26:49.742Z,62.41
2018-08-16T23:31:52.743Z,62.60
2018-08-16T23:36:55.792Z,63.05
2018-08-16T23:41:58.872Z,63.08
2018-08-16T23:47:01.978Z,63.20
2018-08-16T23:52:05.054Z,62.79
2018-08-16T23:57:08.199Z,62.95
